Time;durP1;ratioP1;P1;durP2;ratioP2;P2;SDS_P1;SDS_P2;PMS_P1;PMS_P2;Temp;Humidity;BMP_temperature;BMP_pressure;BME280_temperature;BME280_humidity;BME280_pressure;Samples;Min_cycle;Max_cycle;Signal;HPM_P1;HPM_P2
2023/03/28 00:00:10;;;;;;;6.67;2.50;;;1.80;99.90;;;;;;5014644;28;20548;-83
2023/03/28 00:02:37;;;;;;;7.10;3.67;;;1.80;99.90;;;;;;5013098;28;20450;-83
2023/03/28 00:05:07;;;;;;;8.50;3.20;;;1.70;99.90;;;;;;5013615;28;20455;-83
2023/03/28 00:07:35;;;;;;;9.47;2.67;;;1.70;99.90;;;;;;5013376;28;20451;-85
2023/03/28 00:10:02;;;;;;;6.63;2.30;;;1.60;99.90;;;;;;5012547;28;20439;-85
2023/03/28 00:12:29;;;;;;;7.67;2.60;;;1.60;99.90;;;;;;5012848;28;20428;-83
2023/03/28 00:14:57;;;;;;;6.20;2.00;;;1.60;99.90;;;;;;5013726;28;20503;-85
2023/03/28 00:17:24;;;;;;;7.73;2.07;;;1.60;99.90;;;;;;5013243;28;20461;-84
2023/03/28 00:19:52;;;;;;;6.40;2.60;;;1.50;99.90;;;;;;5013786;28;20463;-86
2023/03/28 00:22:21;;;;;;;8.10;2.33;;;1.50;99.90;;;;;;5012938;28;20797;-85
2023/03/28 00:24:49;;;;;;;6.53;2.57;;;1.50;99.90;;;;;;5012970;28;20462;-84
2023/03/28 00:27:17;;;;;;;4.63;1.93;;;1.50;99.90;;;;;;5014710;28;20428;-84
2023/03/28 00:29:44;;;;;;;2.93;2.33;;;1.40;99.90;;;;;;5013646;28;20881;-85
2023/03/28 00:32:11;;;;;;;5.00;2.20;;;1.40;99.90;;;;;;5012899;28;20440;-84
2023/03/28 00:34:38;;;;;;;8.33;1.70;;;1.40;99.90;;;;;;5013522;28;21039;-83
2023/03/28 00:37:05;;;;;;;5.80;2.50;;;1.30;99.90;;;;;;5013850;28;20435;-84
2023/03/28 00:39:33;;;;;;;5.93;2.37;;;1.30;99.90;;;;;;5013439;28;20453;-85
2023/03/28 00:42:02;;;;;;;15.53;2.53;;;1.40;99.90;;;;;;5012935;28;20974;-85
2023/03/28 00:44:50;;;;;;;6.57;1.73;;;1.30;99.90;;;;;;5033175;22;20497;-80
2023/03/28 00:47:29;;;;;;;7.77;2.10;;;1.30;99.90;;;;;;5008053;28;20436;-82
2023/03/28 00:50:00;;;;;;;6.57;2.03;;;1.30;99.90;;;;;;5003908;28;20935;-81
2023/03/28 00:52:29;;;;;;;4.90;1.87;;;1.30;99.90;;;;;;5003836;28;20414;-84
2023/03/28 00:54:59;;;;;;;6.23;2.53;;;1.30;99.90;;;;;;4998529;28;20465;-84
2023/03/28 00:57:28;;;;;;;7.73;2.27;;;1.40;99.90;;;;;;5005532;28;21071;-81
2023/03/28 00:59:54;;;;;;;7.33;2.37;;;1.30;99.90;;;;;;5010069;28;20440;-82
2023/03/28 01:02:21;;;;;;;6.53;2.70;;;1.40;99.90;;;;;;5019006;28;20505;-79
2023/03/28 01:04:56;;;;;;;7.13;2.33;;;1.40;99.90;;;;;;5012919;28;20548;-80
2023/03/28 01:07:23;;;;;;;9.20;2.80;;;1.40;99.90;;;;;;5013160;28;20454;-79
2023/03/28 01:09:51;;;;;;;6.40;2.60;;;1.40;99.90;;;;;;5012738;28;20623;-81
2023/03/28 01:12:20;;;;;;;5.13;2.13;;;1.30;99.90;;;;;;5014402;28;20454;-81
2023/03/28 01:14:47;;;;;;;5.20;1.97;;;1.30;99.90;;;;;;5015409;28;20464;-82
2023/03/28 01:17:14;;;;;;;6.87;2.00;;;1.30;99.90;;;;;;5014996;28;20428;-81
2023/03/28 01:19:57;;;;;;;6.40;2.03;;;1.30;99.90;;;;;;5014927;28;20519;-82
2023/03/28 01:23:03;;;;;;;10.73;3.40;;;1.20;99.90;;;;;;5002340;28;20533;-81
2023/03/28 01:25:56;;;;;;;4.87;1.93;;;1.20;99.90;;;;;;5010813;28;20475;-81
2023/03/28 01:28:45;;;;;;;6.60;3.70;;;1.10;99.90;;;;;;5015404;28;20468;-83
2023/03/28 01:31:45;;;;;;;6.90;1.83;;;1.10;99.90;;;;;;4994999;28;20442;-81
2023/03/28 01:34:50;;;;;;;9.55;2.25;;;1.10;99.90;;;;;;4989635;28;20199;-81
2023/03/28 01:37:31;;;;;;;10.80;1.80;;;1.10;99.90;;;;;;5018357;28;20186;-80
2023/03/28 01:40:21;;;;;;;8.30;2.17;;;1.00;99.90;;;;;;5019206;28;20461;-82
2023/03/28 01:42:59;;;;;;;10.07;2.20;;;1.00;99.90;;;;;;5017994;28;20411;-80
2023/03/28 01:45:35;;;;;;;6.55;3.50;;;1.00;99.90;;;;;;5018812;28;20237;-81
2023/03/28 01:48:06;;;;;;;4.60;2.73;;;0.90;99.90;;;;;;5019194;28;20192;-78
2023/03/28 01:50:39;;;;;;;7.40;2.13;;;0.90;99.90;;;;;;5018002;28;20444;-84
2023/03/28 01:53:12;;;;;;;5.00;2.28;;;0.90;99.90;;;;;;5018464;28;20436;-80
2023/03/28 01:55:47;;;;;;;9.50;2.63;;;0.90;99.90;;;;;;5019221;28;20597;-82
2023/03/28 01:58:18;;;;;;;8.15;2.15;;;0.90;99.90;;;;;;5018868;28;20472;-83
2023/03/28 02:00:48;;;;;;;6.03;2.40;;;0.80;99.90;;;;;;5018573;28;20205;-79
2023/03/28 02:03:21;;;;;;;5.60;2.47;;;0.80;99.90;;;;;;5018835;28;20453;-80
2023/03/28 02:05:50;;;;;;;5.93;2.37;;;0.80;99.90;;;;;;5019224;28;20448;-82
2023/03/28 02:08:20;;;;;;;9.30;3.20;;;0.80;99.90;;;;;;5017538;28;20920;-83
2023/03/28 02:10:49;;;;;;;2.90;1.93;;;0.80;99.90;;;;;;5017951;28;20556;-81
2023/03/28 02:13:20;;;;;;;6.80;2.70;;;0.80;99.90;;;;;;5018732;28;20427;-84
2023/03/28 02:15:50;;;;;;;10.35;2.45;;;0.80;99.90;;;;;;5019251;28;20494;-82
2023/03/28 02:18:22;;;;;;;5.27;2.30;;;0.80;99.90;;;;;;5000575;28;20215;-81
2023/03/28 02:20:55;;;;;;;9.80;3.30;;;0.80;99.90;;;;;;5003723;28;20508;-81
2023/03/28 02:23:29;;;;;;;5.45;1.85;;;0.90;99.90;;;;;;4999356;28;20493;-83
2023/03/28 02:25:56;;;;;;;5.10;2.22;;;0.90;99.90;;;;;;5004974;28;20220;-83
2023/03/28 02:28:24;;;;;;;7.57;2.90;;;0.80;99.90;;;;;;5019424;28;20206;-82
2023/03/28 02:30:52;;;;;;;8.90;2.27;;;0.80;99.90;;;;;;5018682;28;20472;-82
2023/03/28 02:33:36;;;;;;;5.30;2.10;;;0.80;99.90;;;;;;5017885;28;20511;-79
2023/03/28 02:36:21;;;;;;;4.90;2.40;;;0.80;99.90;;;;;;5015745;28;20993;-81
2023/03/28 02:39:00;;;;;;;12.10;3.20;;;0.80;99.90;;;;;;5009736;28;20671;-82
2023/03/28 02:41:35;;;;;;;6.30;2.50;;;0.80;99.90;;;;;;5002128;28;20191;-81
2023/03/28 02:44:20;;;;;;;5.43;3.07;;;0.70;99.90;;;;;;5018383;28;20540;-81
2023/03/28 02:46:58;;;;;;;5.53;3.55;;;0.70;99.90;;;;;;5017771;28;20823;-80
2023/03/28 02:49:36;;;;;;;3.78;1.85;;;0.70;99.90;;;;;;5017911;28;20197;-82
2023/03/28 02:52:13;;;;;;;5.20;2.33;;;0.70;99.90;;;;;;5016960;28;20198;-81
2023/03/28 02:54:50;;;;;;;10.02;2.67;;;0.70;99.90;;;;;;5017158;28;20495;-79
2023/03/28 02:57:27;;;;;;;9.95;3.03;;;0.60;99.90;;;;;;5017139;28;20221;-79
2023/03/28 02:59:58;;;;;;;11.07;2.40;;;0.60;99.90;;;;;;5018238;28;20197;-81
2023/03/28 03:02:27;;;;;;;7.80;2.33;;;0.60;99.90;;;;;;5016883;28;20424;-82
2023/03/28 03:04:56;;;;;;;8.18;2.45;;;0.60;99.90;;;;;;5014820;28;20226;-80
2023/03/28 03:07:23;;;;;;;6.47;3.00;;;0.50;99.90;;;;;;5005565;28;20563;-80
2023/03/28 03:09:52;;;;;;;9.32;2.85;;;0.50;99.90;;;;;;5015962;28;20264;-80
2023/03/28 03:12:19;;;;;;;6.10;2.75;;;0.60;99.90;;;;;;5004345;28;20632;-80
2023/03/28 03:14:49;;;;;;;6.00;2.60;;;0.50;99.90;;;;;;5016835;28;20233;-80
2023/03/28 03:17:16;;;;;;;8.70;2.90;;;0.50;99.90;;;;;;5017383;28;20207;-81
2023/03/28 03:19:43;;;;;;;6.70;2.60;;;0.50;99.90;;;;;;5017979;28;20214;-80
2023/03/28 03:22:10;;;;;;;4.93;3.03;;;0.50;99.90;;;;;;5004413;28;20210;-81
2023/03/28 03:24:38;;;;;;;5.87;2.67;;;0.50;99.90;;;;;;4998041;28;20489;-81
2023/03/28 03:27:06;;;;;;;7.67;2.97;;;0.50;99.90;;;;;;5016836;28;20973;-82
2023/03/28 03:29:33;;;;;;;8.88;3.45;;;0.50;99.90;;;;;;5017204;28;20486;-82
2023/03/28 03:31:59;;;;;;;11.15;2.90;;;0.50;99.90;;;;;;5013466;28;20212;-80
2023/03/28 03:34:26;;;;;;;10.10;3.33;;;0.50;99.90;;;;;;5017338;28;20235;-79
2023/03/28 03:36:53;;;;;;;8.60;3.70;;;0.50;99.90;;;;;;5001607;28;20215;-82
2023/03/28 03:39:20;;;;;;;6.38;3.20;;;0.50;99.90;;;;;;5008941;28;20567;-81
2023/03/28 03:41:47;;;;;;;11.32;3.25;;;0.50;99.90;;;;;;5013863;28;20206;-80
2023/03/28 03:44:15;;;;;;;7.63;3.90;;;0.40;99.90;;;;;;5009582;28;20212;-80
2023/03/28 03:46:42;;;;;;;8.07;2.97;;;0.40;99.90;;;;;;5009445;28;20212;-80
2023/03/28 03:49:09;;;;;;;9.30;3.55;;;0.40;99.90;;;;;;5014485;28;20217;-79
2023/03/28 03:51:38;;;;;;;6.60;2.60;;;0.40;99.90;;;;;;5015351;28;20689;-79
2023/03/28 03:54:05;;;;;;;11.50;5.05;;;0.50;99.90;;;;;;5016116;28;20471;-80
2023/03/28 03:56:32;;;;;;;11.40;4.73;;;0.50;99.90;;;;;;5016644;28;20223;-82
2023/03/28 03:58:59;;;;;;;11.65;4.30;;;0.50;99.90;;;;;;5000853;28;20849;-80
2023/03/28 04:01:33;;;;;;;6.72;4.28;;;0.50;99.90;;;;;;5005663;28;20218;-83
2023/03/28 04:04:00;;;;;;;11.05;4.70;;;0.50;99.90;;;;;;5009842;28;20213;-81
2023/03/28 04:06:28;;;;;;;10.32;5.70;;;0.50;99.90;;;;;;5005853;28;20198;-81
2023/03/28 04:08:55;;;;;;;11.23;4.40;;;0.40;99.90;;;;;;5010395;28;20214;-80
2023/03/28 04:11:21;;;;;;;8.68;4.13;;;0.40;99.90;;;;;;5009991;28;20292;-80
2023/03/28 04:13:48;;;;;;;7.75;4.13;;;0.40;99.90;;;;;;5010377;28;20717;-81
2023/03/28 04:16:15;;;;;;;10.73;4.53;;;0.40;99.90;;;;;;5015246;28;20236;-81
2023/03/28 04:18:49;;;;;;;13.05;4.35;;;0.40;99.90;;;;;;5011347;28;20217;-80
2023/03/28 04:21:17;;;;;;;7.80;4.05;;;0.40;99.90;;;;;;4996925;28;20202;-80
2023/03/28 04:23:47;;;;;;;8.07;4.10;;;0.40;99.90;;;;;;5008121;28;20209;-82
2023/03/28 04:26:14;;;;;;;11.23;4.78;;;0.40;99.90;;;;;;4997950;28;20223;-81
2023/03/28 04:28:42;;;;;;;7.90;3.90;;;0.40;99.90;;;;;;4995447;28;20264;-80
2023/03/28 04:31:10;;;;;;;7.78;3.70;;;0.40;99.90;;;;;;5011497;28;20216;-79
2023/03/28 04:33:38;;;;;;;9.52;4.85;;;0.30;99.90;;;;;;5017094;28;20222;-82
2023/03/28 04:36:08;;;;;;;6.72;4.50;;;0.30;99.90;;;;;;5016427;28;20226;-81
2023/03/28 04:38:36;;;;;;;8.57;4.57;;;0.30;99.90;;;;;;5017296;28;20210;-81
2023/03/28 04:41:04;;;;;;;7.07;3.92;;;0.30;99.90;;;;;;5015803;28;20620;-80
2023/03/28 04:43:31;;;;;;;12.68;4.60;;;0.30;99.90;;;;;;5015635;28;20210;-78
2023/03/28 04:45:59;;;;;;;15.88;5.32;;;0.30;99.90;;;;;;5016639;28;20753;-79
2023/03/28 04:48:26;;;;;;;7.40;4.10;;;0.30;99.90;;;;;;5018968;28;20208;-82
2023/03/28 04:50:53;;;;;;;7.97;4.15;;;0.30;99.90;;;;;;5017059;28;20207;-78
2023/03/28 04:53:22;;;;;;;11.40;4.53;;;0.30;99.90;;;;;;5018872;28;20199;-81
2023/03/28 04:55:49;;;;;;;17.08;5.38;;;0.60;99.90;;;;;;5021882;28;20222;-82
2023/03/28 04:58:16;;;;;;;13.82;4.57;;;0.30;99.90;;;;;;5018717;28;20289;-79
2023/03/28 05:00:44;;;;;;;9.25;5.10;;;0.30;99.90;;;;;;5017751;28;20220;-80
2023/03/28 05:03:13;;;;;;;9.75;5.60;;;0.30;99.90;;;;;;5014831;28;20232;-80
2023/03/28 05:05:40;;;;;;;9.63;5.40;;;0.30;99.90;;;;;;5019470;28;20294;-82
2023/03/28 05:08:07;;;;;;;8.93;6.00;;;0.30;99.90;;;;;;5001083;28;20239;-83
2023/03/28 05:10:35;;;;;;;8.32;5.13;;;0.30;99.90;;;;;;4987897;28;20740;-83
2023/03/28 05:13:02;;;;;;;12.10;5.35;;;0.30;99.90;;;;;;4998563;28;20212;-81
2023/03/28 05:15:30;;;;;;;9.60;4.85;;;0.30;99.90;;;;;;5014288;28;20663;-83
2023/03/28 05:17:57;;;;;;;9.30;4.13;;;0.40;99.90;;;;;;5002553;28;20669;-83
2023/03/28 05:20:23;;;;;;;7.80;5.68;;;0.50;99.90;;;;;;5009601;28;20208;-81
2023/03/28 05:22:50;;;;;;;10.50;5.25;;;0.40;99.90;;;;;;5008583;28;20696;-82
2023/03/28 05:25:17;;;;;;;14.35;4.32;;;0.40;99.90;;;;;;5007854;28;20228;-82
2023/03/28 05:27:46;;;;;;;14.50;5.50;;;0.40;99.90;;;;;;5016391;28;20691;-83
2023/03/28 05:30:13;;;;;;;12.50;5.38;;;0.40;99.90;;;;;;5017908;28;20293;-80
2023/03/28 05:32:40;;;;;;;10.10;4.38;;;0.50;99.90;;;;;;5016216;28;20209;-82
2023/03/28 05:35:09;;;;;;;11.02;5.35;;;0.50;99.90;;;;;;5016396;28;20293;-80
2023/03/28 05:37:36;;;;;;;16.67;5.30;;;0.50;99.90;;;;;;5009954;28;20206;-80
2023/03/28 05:40:05;;;;;;;10.55;5.25;;;0.50;99.90;;;;;;5012266;28;20573;-83
2023/03/28 05:42:32;;;;;;;19.40;6.57;;;0.60;99.90;;;;;;5015971;28;20213;-82
2023/03/28 05:45:00;;;;;;;7.05;4.63;;;0.60;99.90;;;;;;5015037;28;20245;-81
2023/03/28 05:47:27;;;;;;;11.07;4.57;;;0.60;99.90;;;;;;4995758;28;20202;-81
2023/03/28 05:49:54;;;;;;;14.30;5.15;;;0.70;99.90;;;;;;5007669;28;20288;-85
2023/03/28 05:52:21;;;;;;;8.10;4.97;;;0.70;99.90;;;;;;5021224;28;20245;-85
2023/03/28 05:54:48;;;;;;;11.00;6.00;;;0.70;99.90;;;;;;5019086;28;20646;-84
2023/03/28 05:57:15;;;;;;;7.85;5.78;;;0.70;99.90;;;;;;5010615;28;20218;-85
2023/03/28 05:59:42;;;;;;;10.85;5.10;;;0.80;99.90;;;;;;5017834;28;20207;-84
2023/03/28 06:02:13;;;;;;;13.80;5.95;;;0.90;99.90;;;;;;5009887;28;20215;-83
2023/03/28 06:04:40;;;;;;;15.40;5.32;;;0.90;99.90;;;;;;5011374;28;20236;-83
2023/03/28 06:07:07;;;;;;;12.80;6.00;;;1.00;99.90;;;;;;5011435;28;20203;-83
2023/03/28 06:09:34;;;;;;;15.63;5.77;;;1.10;99.90;;;;;;5019824;28;20431;-85
2023/03/28 06:12:02;;;;;;;10.65;5.68;;;1.10;99.90;;;;;;5011911;28;20468;-84
2023/03/28 06:14:29;;;;;;;9.10;5.10;;;1.20;99.90;;;;;;5009482;28;20294;-82
2023/03/28 06:16:56;;;;;;;15.20;5.40;;;1.30;99.90;;;;;;5005789;28;20227;-83
2023/03/28 06:19:24;;;;;;;10.07;5.57;;;1.30;99.90;;;;;;5007523;28;20437;-84
2023/03/28 06:21:51;;;;;;;10.77;5.17;;;1.40;99.90;;;;;;5015255;28;20828;-84
2023/03/28 06:24:18;;;;;;;15.33;5.87;;;1.50;99.90;;;;;;5017303;28;20453;-84
2023/03/28 06:26:45;;;;;;;8.63;4.87;;;1.50;99.90;;;;;;5020630;28;20984;-83
2023/03/28 06:29:12;;;;;;;8.67;4.27;;;1.60;99.90;;;;;;5022772;28;20469;-86
2023/03/28 06:31:39;;;;;;;11.13;5.47;;;1.70;99.90;;;;;;5011650;28;20593;-84
2023/03/28 06:34:06;;;;;;;9.20;4.87;;;1.80;99.90;;;;;;5019188;28;20456;-84
2023/03/28 06:36:34;;;;;;;10.30;5.97;;;1.80;99.90;;;;;;5019659;28;20855;-83
2023/03/28 06:39:01;;;;;;;10.43;5.30;;;1.90;99.90;;;;;;5017192;28;20529;-84
2023/03/28 06:41:28;;;;;;;8.63;5.33;;;2.00;99.90;;;;;;5014339;28;20421;-85
2023/03/28 06:43:55;;;;;;;10.07;4.70;;;2.00;99.90;;;;;;5013683;28;20500;-84
2023/03/28 06:46:21;;;;;;;12.73;4.90;;;2.10;99.90;;;;;;5059750;23;20534;-84
2023/03/28 06:48:48;;;;;;;15.67;5.63;;;2.20;99.90;;;;;;5054615;28;20524;-84
2023/03/28 06:51:15;;;;;;;14.17;6.07;;;2.20;99.90;;;;;;5044770;28;20455;-84
2023/03/28 06:53:43;;;;;;;15.33;6.47;;;2.30;99.90;;;;;;5045818;28;20458;-85
2023/03/28 06:56:11;;;;;;;10.37;5.57;;;2.30;99.90;;;;;;5053549;28;20524;-84
2023/03/28 06:58:38;;;;;;;10.70;4.93;;;2.40;99.90;;;;;;5055061;28;20456;-84
2023/03/28 07:01:05;;;;;;;10.47;4.70;;;2.50;99.90;;;;;;5040823;28;20434;-85
2023/03/28 07:03:33;;;;;;;10.23;6.50;;;2.60;99.90;;;;;;5044241;28;20426;-86
2023/03/28 07:06:04;;;;;;;14.00;5.33;;;2.70;99.90;;;;;;5040566;28;20487;-87
2023/03/28 07:08:31;;;;;;;10.73;4.70;;;2.80;99.90;;;;;;5047188;28;20478;-83
2023/03/28 07:10:59;;;;;;;8.30;4.70;;;2.90;99.90;;;;;;5044577;28;20462;-87
2023/03/28 07:13:26;;;;;;;14.40;5.57;;;3.00;99.90;;;;;;5048837;28;20487;-84
2023/03/28 07:16:00;;;;;;;12.63;5.87;;;3.10;99.90;;;;;;5059974;28;20442;-83
2023/03/28 07:18:27;;;;;;;10.80;4.70;;;3.20;99.90;;;;;;5045973;28;20452;-85
2023/03/28 07:20:54;;;;;;;17.00;7.00;;;3.30;99.90;;;;;;5055776;28;20584;-84
2023/03/28 07:23:21;;;;;;;31.53;6.30;;;3.30;99.90;;;;;;5044841;28;20457;-84
2023/03/28 07:25:48;;;;;;;20.67;5.37;;;3.50;99.90;;;;;;5041715;28;20525;-82
2023/03/28 07:28:16;;;;;;;16.77;5.30;;;3.60;99.90;;;;;;5041417;28;20449;-85
2023/03/28 07:30:43;;;;;;;8.57;4.70;;;3.70;99.90;;;;;;5038688;28;20484;-87
2023/03/28 07:33:10;;;;;;;10.00;4.57;;;3.80;99.90;;;;;;5040838;28;20453;-83
2023/03/28 07:35:39;;;;;;;12.77;4.93;;;3.90;99.90;;;;;;5039356;28;21089;-83
2023/03/28 07:38:06;;;;;;;11.13;5.17;;;3.90;99.90;;;;;;5042804;28;20531;-84
2023/03/28 07:40:33;;;;;;;10.23;4.23;;;4.10;99.90;;;;;;5041401;28;20687;-85
2023/03/28 07:43:01;;;;;;;6.13;3.50;;;4.20;99.90;;;;;;5043220;28;20460;-84
2023/03/28 07:45:29;;;;;;;13.20;4.73;;;4.30;99.90;;;;;;5052626;28;20496;-84
2023/03/28 07:47:56;;;;;;;9.23;4.20;;;4.50;99.90;;;;;;5049939;28;20453;-83
2023/03/28 07:50:23;;;;;;;10.17;4.90;;;4.70;99.90;;;;;;5040651;28;20449;-85
2023/03/28 07:52:51;;;;;;;11.87;5.27;;;5.00;99.90;;;;;;5040328;28;20543;-82
2023/03/28 07:55:18;;;;;;;9.60;5.97;;;5.20;99.90;;;;;;5044565;28;20490;-83
2023/03/28 07:57:50;;;;;;;7.23;4.93;;;5.30;99.90;;;;;;5056960;28;21019;-82
2023/03/28 08:00:18;;;;;;;6.50;3.57;;;5.50;99.90;;;;;;5051274;28;20980;-84
2023/03/28 08:02:48;;;;;;;8.73;3.87;;;5.60;99.90;;;;;;5036482;28;20455;-84
2023/03/28 08:05:15;;;;;;;5.30;3.53;;;5.70;99.90;;;;;;5049338;28;20550;-83
2023/03/28 08:07:44;;;;;;;8.10;3.83;;;6.20;99.90;;;;;;5052130;28;20452;-81
2023/03/28 08:10:11;;;;;;;7.20;3.80;;;6.40;99.90;;;;;;5052924;28;20458;-81
2023/03/28 08:12:38;;;;;;;11.80;4.10;;;6.60;99.90;;;;;;5053261;28;20501;-84
2023/03/28 08:15:06;;;;;;;8.57;3.70;;;7.10;99.90;;;;;;5051061;28;20454;-83
2023/03/28 08:17:34;;;;;;;8.13;4.13;;;7.40;99.90;;;;;;5052184;28;20288;-85
2023/03/28 08:20:08;;;;;;;7.60;4.00;;;7.70;99.90;;;;;;5051345;28;20478;-87
2023/03/28 08:22:35;;;;;;;7.80;3.80;;;8.20;99.90;;;;;;5051596;28;20454;-87
2023/03/28 08:25:02;;;;;;;4.90;3.00;;;8.80;99.90;;;;;;5053524;28;20539;-83
2023/03/28 08:27:29;;;;;;;8.50;3.10;;;9.40;99.90;;;;;;5047057;28;20471;-86
2023/03/28 08:29:56;;;;;;;7.57;2.93;;;10.70;99.90;;;;;;5051202;28;20458;-86
2023/03/28 08:32:26;;;;;;;6.87;3.10;;;11.90;99.90;;;;;;5043089;28;20479;-87
2023/03/28 08:34:53;;;;;;;7.30;2.93;;;12.30;99.90;;;;;;5042177;28;20447;-85
2023/03/28 08:37:21;;;;;;;9.00;3.20;;;12.80;99.90;;;;;;5057823;28;20494;-86
2023/03/28 08:39:48;;;;;;;4.33;2.63;;;13.90;99.30;;;;;;5050686;28;20444;-87
2023/03/28 08:42:47;;;;;;;5.57;2.90;;;14.30;93.00;;;;;;5057538;28;20455;-87
2023/03/28 08:45:28;;;;;;;6.40;3.63;;;13.80;88.00;;;;;;5057059;28;20537;-86
2023/03/28 08:48:08;;;;;;;7.70;3.27;;;13.80;87.30;;;;;;5055881;28;20926;-86
2023/03/28 08:50:40;;;;;;;6.90;2.70;;;13.30;86.80;;;;;;5038186;28;20449;-85
2023/03/28 08:53:17;;;;;;;6.70;2.60;;;13.30;89.60;;;;;;5036779;28;20449;-84
2023/03/28 08:55:44;;;;;;;11.67;3.50;;;12.80;90.30;;;;;;5041185;28;20483;-85
2023/03/28 08:58:18;;;;;;;13.37;4.30;;;12.70;87.80;;;;;;5036945;28;20542;-85
2023/03/28 09:00:45;;;;;;;5.70;2.60;;;12.90;87.80;;;;;;5043114;28;20467;-86
2023/03/28 09:03:15;;;;;;;4.87;1.80;;;13.70;84.70;;;;;;5046852;28;20460;-84
2023/03/28 09:05:48;;;;;;;4.93;1.80;;;13.80;83.50;;;;;;5040974;28;20478;-83
2023/03/28 09:08:41;;;;;;;5.10;1.67;;;14.20;78.60;;;;;;5043579;28;20455;-85
2023/03/28 09:11:22;;;;;;;6.07;2.00;;;13.70;76.20;;;;;;5047533;28;20452;-86
2023/03/28 09:14:04;;;;;;;5.13;2.53;;;14.40;77.50;;;;;;5054240;28;20533;-87
2023/03/28 09:16:42;;;;;;;3.17;1.40;;;14.50;73.40;;;;;;5053006;28;20486;-84
2023/03/28 09:19:27;;;;;;;10.77;2.83;;;14.60;74.00;;;;;;5042718;28;20454;-85
2023/03/28 09:22:10;;;;;;;3.57;1.60;;;14.60;70.40;;;;;;5042519;28;20456;-86
2023/03/28 09:24:53;;;;;;;2.70;1.50;;;14.60;72.40;;;;;;5053209;28;20459;-86
2023/03/28 09:27:25;;;;;;;5.80;1.10;;;14.70;73.60;;;;;;5039711;28;20472;-87
2023/03/28 09:29:54;;;;;;;3.83;1.37;;;15.60;67.40;;;;;;5042919;28;20455;-86
2023/03/28 09:32:26;;;;;;;3.33;1.30;;;14.70;64.10;;;;;;5042516;28;20456;-83
2023/03/28 09:34:53;;;;;;;3.03;1.43;;;14.60;66.60;;;;;;5042509;28;20451;-82
2023/03/28 09:37:31;;;;;;;6.80;2.20;;;15.30;69.60;;;;;;5050801;28;20496;-83
2023/03/28 09:40:16;;;;;;;4.37;1.23;;;14.60;64.00;;;;;;5035118;28;20452;-83
2023/03/28 09:42:54;;;;;;;4.00;1.40;;;13.60;61.30;;;;;;5037204;28;20460;-83
2023/03/28 09:45:39;;;;;;;4.33;1.30;;;12.50;63.20;;;;;;5048011;28;20529;-82
2023/03/28 09:48:11;;;;;;;4.03;1.67;;;11.80;66.50;;;;;;5048507;28;20445;-82
2023/03/28 09:50:38;;;;;;;11.83;1.73;;;11.60;69.70;;;;;;5044996;28;20453;-86
2023/03/28 09:53:17;;;;;;;7.30;1.50;;;11.60;71.30;;;;;;5047292;28;20459;-83
2023/03/28 09:55:45;;;;;;;2.80;1.60;;;11.40;72.20;;;;;;5052543;28;21030;-86
2023/03/28 09:58:14;;;;;;;6.63;2.07;;;11.20;73.00;;;;;;5051096;28;20486;-84
2023/03/28 10:00:43;;;;;;;3.80;1.93;;;11.10;74.60;;;;;;5049698;28;20794;-85
2023/03/28 10:03:21;;;;;;;11.40;1.80;;;11.20;77.10;;;;;;5051823;28;20856;-85
2023/03/28 10:05:49;;;;;;;4.17;1.90;;;11.10;79.40;;;;;;5055119;28;20503;-85
2023/03/28 10:08:23;;;;;;;3.27;1.40;;;11.70;86.40;;;;;;5048243;28;20444;-85
2023/03/28 10:10:58;;;;;;;6.73;1.80;;;12.10;77.30;;;;;;5044685;28;20462;-85
2023/03/28 10:13:25;;;;;;;3.30;1.27;;;12.40;73.70;;;;;;5049192;28;20459;-85
2023/03/28 10:15:56;;;;;;;2.00;1.00;;;11.80;74.20;;;;;;5040837;28;20476;-84
2023/03/28 10:18:27;;;;;;;3.80;1.33;;;12.60;68.60;;;;;;5052620;28;20481;-84
2023/03/28 10:20:54;;;;;;;3.80;1.20;;;13.90;67.00;;;;;;5058156;28;21055;-88
2023/03/28 10:23:23;;;;;;;6.10;1.67;;;15.80;64.40;;;;;;5057063;28;20714;-87
2023/03/28 10:25:52;;;;;;;7.33;2.10;;;16.00;59.60;;;;;;5058815;28;20567;-87
2023/03/28 10:28:29;;;;;;;4.33;1.30;;;15.20;59.10;;;;;;5054053;28;20446;-83
2023/03/28 10:31:00;;;;;;;6.20;1.77;;;14.20;59.80;;;;;;5048398;28;20451;-84
2023/03/28 10:33:30;;;;;;;6.90;2.23;;;14.20;59.90;;;;;;5052568;28;20651;-84
2023/03/28 10:36:00;;;;;;;10.37;2.23;;;13.30;60.20;;;;;;5054157;28;20455;-82
2023/03/28 10:38:32;;;;;;;5.00;1.97;;;13.10;62.20;;;;;;5051881;28;20545;-80
2023/03/28 10:41:01;;;;;;;3.83;1.37;;;12.90;61.40;;;;;;5057661;28;20516;-83
2023/03/28 10:43:38;;;;;;;5.20;2.00;;;13.10;63.60;;;;;;5063683;28;20526;-82
2023/03/28 10:46:13;;;;;;;6.17;2.20;;;12.80;62.90;;;;;;5047762;28;20477;-81
2023/03/28 10:48:41;;;;;;;4.37;2.10;;;13.10;65.20;;;;;;5039285;28;20433;-82
2023/03/28 10:51:16;;;;;;;4.13;1.93;;;15.40;75.00;;;;;;5038948;28;20835;-85
2023/03/28 10:53:55;;;;;;;6.07;2.00;;;16.60;61.30;;;;;;5049040;28;20447;-85
2023/03/28 10:56:32;;;;;;;5.90;1.50;;;18.40;59.30;;;;;;5042700;28;20860;-81
2023/03/28 10:59:20;;;;;;;4.50;1.70;;;17.70;54.20;;;;;;5034646;28;20511;-81
2023/03/28 11:02:00;;;;;;;4.63;1.90;;;19.50;53.90;;;;;;5042428;28;20449;-83
2023/03/28 11:04:49;;;;;;;4.40;1.60;;;20.30;50.90;;;;;;5034078;28;20450;-80
2023/03/28 11:07:21;;;;;;;4.67;1.87;;;20.60;51.20;;;;;;5047496;28;20484;-82
2023/03/28 11:09:55;;;;;;;4.20;1.80;;;19.50;51.30;;;;;;5038985;28;20448;-81
2023/03/28 11:12:32;;;;;;;4.57;1.80;;;18.90;53.60;;;;;;5034222;28;20936;-82
2023/03/28 11:15:09;;;;;;;10.03;2.20;;;18.90;50.30;;;;;;5042865;28;20963;-82
2023/03/28 11:17:50;;;;;;;5.00;2.40;;;19.10;51.30;;;;;;5049521;28;20481;-83
2023/03/28 11:20:27;;;;;;;8.07;2.23;;;18.50;49.10;;;;;;5045644;28;20464;-82
2023/03/28 11:23:04;;;;;;;4.87;1.67;;;18.50;49.50;;;;;;5048461;28;20835;-83
2023/03/28 11:25:42;;;;;;;4.67;1.50;;;17.90;50.80;;;;;;5057577;28;20558;-82
2023/03/28 11:28:19;;;;;;;6.00;1.87;;;17.40;51.00;;;;;;5054368;28;20447;-83
2023/03/28 11:30:52;;;;;;;4.60;1.83;;;18.50;49.60;;;;;;5045996;28;20471;-85
2023/03/28 11:33:23;;;;;;;4.40;1.70;;;18.60;49.00;;;;;;5034275;28;20445;-82
2023/03/28 11:35:56;;;;;;;3.73;1.53;;;18.50;50.60;;;;;;5043097;28;20484;-83
2023/03/28 11:38:26;;;;;;;9.53;1.80;;;19.10;49.80;;;;;;5035546;28;20479;-82
2023/03/28 11:40:59;;;;;;;5.50;1.63;;;19.20;49.30;;;;;;5034183;28;20977;-84
2023/03/28 11:43:31;;;;;;;5.60;1.93;;;19.30;48.00;;;;;;5042056;28;20493;-83
2023/03/28 11:46:08;;;;;;;6.30;1.70;;;20.10;50.40;;;;;;5055787;28;21014;-82
2023/03/28 11:48:41;;;;;;;3.87;1.83;;;20.80;48.50;;;;;;5055007;28;20467;-81
2023/03/28 11:51:12;;;;;;;6.73;2.10;;;20.90;47.00;;;;;;5043022;28;20506;-84
2023/03/28 11:53:43;;;;;;;2.80;1.63;;;20.50;47.60;;;;;;5036619;28;20459;-82
2023/03/28 11:56:20;;;;;;;3.37;1.37;;;19.10;48.60;;;;;;5035581;28;21227;-81
2023/03/28 11:58:52;;;;;;;4.30;1.80;;;19.20;50.10;;;;;;5046126;28;20493;-81
2023/03/28 12:01:23;;;;;;;4.97;1.40;;;20.90;49.50;;;;;;5051768;28;20460;-81
2023/03/28 12:04:00;;;;;;;5.83;1.60;;;22.20;48.10;;;;;;5042676;28;20445;-82
2023/03/28 12:06:32;;;;;;;5.87;2.50;;;22.90;47.20;;;;;;5049100;28;20451;-83
2023/03/28 12:09:06;;;;;;;3.77;1.60;;;23.10;47.70;;;;;;5058326;28;20464;-81
2023/03/28 12:11:37;;;;;;;4.47;1.50;;;23.10;45.70;;;;;;5048201;28;20460;-84
2023/03/28 12:14:14;;;;;;;3.00;1.73;;;22.90;45.70;;;;;;5056293;28;20472;-83
2023/03/28 12:16:46;;;;;;;3.43;1.20;;;22.60;45.00;;;;;;5036004;28;20472;-84
2023/03/28 12:19:17;;;;;;;4.53;1.63;;;21.90;44.40;;;;;;5058097;28;20522;-83
2023/03/28 12:21:48;;;;;;;4.93;1.83;;;20.00;45.00;;;;;;5038141;28;20464;-84
2023/03/28 12:24:22;;;;;;;5.00;1.63;;;19.60;46.40;;;;;;5054400;28;20536;-83
2023/03/28 12:27:00;;;;;;;4.30;1.60;;;19.70;45.90;;;;;;5043869;28;20489;-82
2023/03/28 12:29:32;;;;;;;3.83;1.37;;;20.20;46.10;;;;;;5038785;28;20500;-83
2023/03/28 12:32:23;;;;;;;8.87;2.53;;;19.50;46.50;;;;;;5046633;28;20461;-82
2023/03/28 12:34:56;;;;;;;3.60;1.60;;;19.10;46.30;;;;;;5050829;28;20483;-82
2023/03/28 12:37:28;;;;;;;3.57;1.40;;;18.70;45.00;;;;;;5050144;28;20611;-81
2023/03/28 12:40:11;;;;;;;3.20;1.10;;;18.40;44.10;;;;;;5054209;28;20452;-85
2023/03/28 12:42:39;;;;;;;2.53;1.47;;;18.20;44.20;;;;;;5045433;28;20456;-82
2023/03/28 12:45:14;;;;;;;4.13;1.60;;;17.90;45.50;;;;;;5045854;28;20445;-84
2023/03/28 12:47:45;;;;;;;6.23;1.83;;;18.20;45.40;;;;;;5057695;23;20507;-82
2023/03/28 12:50:17;;;;;;;3.43;1.40;;;18.10;45.50;;;;;;5058219;28;20454;-84
2023/03/28 12:52:45;;;;;;;5.17;2.27;;;17.80;46.00;;;;;;5058889;28;20602;-82
2023/03/28 12:55:42;;;;;;;3.93;1.37;;;17.10;46.20;;;;;;5060124;28;21057;-84
2023/03/28 12:58:20;;;;;;;4.93;1.50;;;16.20;46.60;;;;;;5061454;28;20495;-84
2023/03/28 13:00:55;;;;;;;5.90;1.60;;;16.80;47.40;;;;;;5050081;28;20466;-84
2023/03/28 13:03:34;;;;;;;6.43;1.37;;;16.70;47.50;;;;;;5055313;28;20450;-83
2023/03/28 13:06:10;;;;;;;5.40;1.80;;;17.70;47.40;;;;;;5057852;28;20999;-84
2023/03/28 13:08:51;;;;;;;4.90;1.60;;;18.50;47.90;;;;;;5064919;28;20445;-84
2023/03/28 13:11:28;;;;;;;6.93;1.37;;;19.60;48.30;;;;;;5063925;28;20514;-83